Otsego, New York
Current Conditions -  °F | °C
As of 12:55 AM on Thursday 23 Oct 2014 (Local Time) from KNY0 Reporting Station
Overcast Overcast  
Wind Chill: 44°   Ceiling: 8000
Heat Index: 47°   Visibility: 10mi
Dew Point: 43°   Wind: 6mph
Humidity: 87%   Direction: 340°NNW
Pressure: 29.93"   Gusts: NA
Location:  42.7373°N, 74.9926°W
Report Text: KNY0 230455Z AUTO 34005KT 10SM SCT029 SCT055 OVC080 08/06 A2993 RMK AO2 P0001 T00820062
Loading
Personal Weather Stations






























Interactive Weather Map
Tropical Storm Tracking
New forecast layout! Learn more

10-Day Weather Forecast

Advertisements
Track Severe Weather on mobile